createdAt,value
2019-01-18T00:00:46.437Z,1.12
2019-01-18T00:03:15.992Z,1.06
2019-01-18T00:05:45.770Z,1.04
2019-01-18T00:08:15.032Z,1.05
2019-01-18T00:10:47.830Z,1.00
2019-01-18T00:13:18.211Z,1.01
2019-01-18T00:15:47.737Z,1.04
2019-01-18T00:18:17.112Z,1.02
2019-01-18T00:20:47.995Z,1.00
2019-01-18T00:23:18.697Z,1.02
2019-01-18T00:25:47.908Z,0.98
2019-01-18T00:28:18.584Z,0.96
2019-01-18T00:30:49.040Z,0.94
2019-01-18T00:33:20.763Z,0.96
2019-01-18T00:35:51.048Z,0.92
2019-01-18T00:38:20.577Z,0.93
2019-01-18T00:40:50.629Z,0.93
2019-01-18T00:43:20.193Z,0.87
2019-01-18T00:45:49.424Z,0.93
2019-01-18T00:48:22.122Z,1.00
2019-01-18T00:50:51.376Z,0.95
2019-01-18T00:53:20.626Z,0.97
2019-01-18T00:55:51.220Z,0.94
2019-01-18T00:58:22.559Z,0.92
2019-01-18T01:00:51.836Z,0.90
2019-01-18T01:03:24.347Z,0.95
2019-01-18T01:05:53.927Z,1.00
2019-01-18T01:08:23.196Z,0.98
2019-01-18T01:10:52.483Z,0.95
2019-01-18T01:13:23.790Z,0.87
2019-01-18T01:15:53.038Z,0.87
2019-01-18T01:18:22.576Z,0.84
2019-01-18T01:20:51.831Z,0.84
2019-01-18T01:23:21.937Z,0.88
2019-01-18T01:25:54.227Z,0.90
2019-01-18T01:28:23.833Z,0.92
2019-01-18T01:30:53.394Z,0.99
2019-01-18T01:33:22.633Z,0.89
2019-01-18T01:35:52.276Z,0.84
2019-01-18T01:38:22.078Z,0.96
2019-01-18T01:40:51.625Z,1.03
2019-01-18T01:43:22.531Z,1.02
2019-01-18T01:45:52.320Z,1.08
2019-01-18T01:48:21.815Z,1.08
2019-01-18T01:50:52.065Z,1.12
2019-01-18T01:53:21.928Z,1.04
2019-01-18T01:55:52.286Z,1.07
2019-01-18T01:58:22.208Z,1.04
2019-01-18T02:00:52.221Z,1.14
2019-01-18T02:03:21.843Z,1.14
2019-01-18T02:05:51.058Z,0.94
2019-01-18T02:08:20.607Z,0.97
2019-01-18T02:10:50.130Z,1.00
2019-01-18T02:13:21.627Z,1.00
2019-01-18T02:15:51.458Z,0.97
2019-01-18T02:18:20.982Z,0.90
2019-01-18T02:20:50.529Z,0.93
2019-01-18T02:23:20.065Z,0.93
2019-01-18T02:25:50.111Z,0.93
2019-01-18T02:28:20.963Z,0.93
2019-01-18T02:30:53.589Z,0.81
2019-01-18T02:33:23.983Z,0.91
2019-01-18T02:35:53.234Z,0.95
2019-01-18T02:38:24.815Z,0.91
2019-01-18T02:40:54.341Z,0.93
2019-01-18T02:43:24.719Z,0.83
2019-01-18T02:45:54.061Z,0.81
2019-01-18T02:48:24.132Z,0.78
2019-01-18T02:50:53.361Z,0.77
2019-01-18T02:53:23.573Z,0.71
2019-01-18T02:55:54.047Z,0.78
2019-01-18T02:58:23.585Z,0.74
2019-01-18T03:00:53.088Z,0.77
2019-01-18T03:03:23.409Z,0.78
2019-01-18T03:05:52.648Z,0.73
2019-01-18T03:08:23.441Z,0.77
2019-01-18T03:10:54.689Z,0.79
2019-01-18T03:13:26.995Z,0.79
2019-01-18T03:15:57.429Z,0.81
2019-01-18T03:18:26.954Z,0.76
2019-01-18T03:20:56.852Z,0.77
2019-01-18T03:23:26.732Z,0.72
2019-01-18T03:25:57.108Z,0.68
2019-01-18T03:28:27.449Z,0.69
2019-01-18T03:30:57.819Z,0.69
2019-01-18T03:33:27.616Z,0.61
2019-01-18T03:35:56.872Z,0.54
2019-01-18T03:38:26.115Z,0.53
2019-01-18T03:40:56.442Z,0.48
2019-01-18T03:43:28.203Z,0.54
2019-01-18T03:45:58.298Z,0.55
2019-01-18T03:48:28.919Z,0.54
2019-01-18T03:50:58.172Z,0.59
2019-01-18T03:53:27.613Z,0.54
2019-01-18T03:55:58.051Z,0.53
2019-01-18T03:58:29.325Z,0.55
2019-01-18T04:01:00.654Z,0.55
2019-01-18T04:03:32.129Z,0.63
2019-01-18T04:06:01.655Z,0.65
2019-01-18T04:08:31.241Z,0.58
2019-01-18T04:11:00.788Z,0.60
2019-01-18T04:13:30.011Z,0.53
2019-01-18T04:15:59.842Z,0.51
2019-01-18T04:18:33.596Z,0.55
2019-01-18T04:21:04.304Z,0.60
2019-01-18T04:23:33.818Z,0.62
2019-01-18T04:26:03.326Z,0.57
2019-01-18T04:28:32.832Z,0.57
2019-01-18T04:31:02.605Z,0.53
2019-01-18T04:33:35.141Z,0.50
2019-01-18T04:36:05.662Z,0.56
2019-01-18T04:38:36.703Z,0.52
2019-01-18T04:41:05.958Z,0.53
2019-01-18T04:43:35.537Z,0.52
2019-01-18T04:46:05.889Z,0.56
2019-01-18T04:48:37.396Z,0.54
2019-01-18T04:51:08.472Z,0.61
2019-01-18T04:53:38.296Z,0.57
2019-01-18T04:56:08.382Z,0.59
2019-01-18T04:58:37.915Z,0.65
2019-01-18T05:01:10.790Z,0.69
2019-01-18T05:03:40.283Z,0.68
2019-01-18T05:06:10.126Z,0.70
2019-01-18T05:08:40.377Z,0.71
2019-01-18T05:11:09.627Z,0.63
2019-01-18T05:13:39.420Z,0.69
2019-01-18T05:16:14.194Z,0.69
2019-01-18T05:18:43.963Z,0.73
2019-01-18T05:21:14.844Z,0.71
2019-01-18T05:23:44.679Z,0.71
2019-01-18T05:26:18.056Z,0.78
2019-01-18T05:28:47.282Z,0.75
2019-01-18T05:31:17.717Z,0.82
2019-01-18T05:33:48.557Z,0.83
2019-01-18T05:36:18.106Z,0.82
2019-01-18T05:38:50.519Z,0.80
2019-01-18T05:41:20.538Z,0.78
2019-01-18T05:43:53.812Z,0.82
2019-01-18T05:46:23.856Z,0.82
2019-01-18T05:48:56.127Z,0.80
2019-01-18T05:51:27.695Z,0.80
2019-01-18T05:53:58.115Z,0.81
2019-01-18T05:56:28.454Z,0.79
2019-01-18T05:58:59.289Z,0.84
2019-01-18T06:01:29.481Z,0.84
2019-01-18T06:04:01.113Z,0.81
2019-01-18T06:06:30.629Z,0.76
2019-01-18T06:09:04.683Z,0.68
2019-01-18T06:11:35.047Z,0.72
2019-01-18T06:14:04.912Z,0.66
2019-01-18T06:16:37.323Z,0.62
2019-01-18T06:19:07.961Z,0.56
2019-01-18T06:21:37.211Z,0.54
2019-01-18T06:24:07.548Z,0.53
2019-01-18T06:26:37.428Z,0.56
2019-01-18T06:29:06.979Z,0.56
2019-01-18T06:31:36.803Z,0.61
2019-01-18T06:34:06.177Z,0.55
2019-01-18T06:36:38.559Z,0.60
2019-01-18T06:39:10.068Z,0.64
2019-01-18T06:42:01.358Z,0.56
2019-01-18T06:44:31.517Z,0.57
2019-01-18T06:47:01.611Z,0.55
2019-01-18T06:49:31.908Z,0.51
2019-01-18T06:52:11.169Z,0.49
2019-01-18T06:54:52.758Z,0.41
2019-01-18T06:57:22.149Z,0.36
2019-01-18T06:59:51.459Z,0.30
2019-01-18T07:02:20.876Z,0.31
2019-01-18T07:04:51.922Z,0.21
2019-01-18T07:07:21.379Z,0.17
2019-01-18T07:09:52.098Z,0.12
2019-01-18T07:12:30.849Z,0.07
2019-01-18T07:15:01.262Z,0.08
2019-01-18T07:17:32.661Z,0.11
2019-01-18T07:20:07.938Z,0.06
2019-01-18T07:22:37.965Z,0.05
2019-01-18T07:25:10.480Z,0.02
2019-01-18T07:27:40.745Z,0.03
2019-01-18T07:30:17.267Z,0.01
2019-01-18T07:32:46.520Z,-0.06
2019-01-18T07:35:16.580Z,-0.11
2019-01-18T07:37:47.553Z,-0.20
2019-01-18T07:40:17.450Z,-0.19
2019-01-18T07:42:49.338Z,-0.17
2019-01-18T07:45:24.795Z,-0.21
2019-01-18T07:47:55.925Z,-0.18
2019-01-18T07:50:28.713Z,-0.20
2019-01-18T07:53:01.779Z,-0.17
2019-01-18T07:55:32.673Z,-0.10
2019-01-18T07:58:12.049Z,-0.09
2019-01-18T08:01:11.835Z,-0.14
2019-01-18T08:03:43.124Z,-0.12
2019-01-18T08:06:13.155Z,-0.08
2019-01-18T08:08:43.736Z,0.00
2019-01-18T08:11:22.308Z,0.06
2019-01-18T08:13:55.523Z,0.10
2019-01-18T08:16:27.886Z,0.05
2019-01-18T08:18:59.199Z,0.08
2019-01-18T08:21:28.458Z,0.09
2019-01-18T08:23:57.719Z,0.17
2019-01-18T08:26:28.492Z,0.26
2019-01-18T08:28:57.705Z,0.34
2019-01-18T08:31:29.233Z,0.43
2019-01-18T08:33:58.912Z,0.38
2019-01-18T08:36:28.201Z,0.54
2019-01-18T08:38:57.461Z,0.57
2019-01-18T08:41:27.203Z,0.60
2019-01-18T08:43:56.562Z,0.61
2019-01-18T08:46:28.028Z,0.74
2019-01-18T08:48:59.726Z,0.83
2019-01-18T08:51:30.788Z,0.94
2019-01-18T08:54:00.631Z,1.07
2019-01-18T08:56:37.346Z,1.25
2019-01-18T08:59:09.630Z,1.37
2019-01-18T09:01:42.064Z,1.46
2019-01-18T09:04:12.588Z,1.45
2019-01-18T09:06:43.179Z,1.49
2019-01-18T09:09:12.923Z,1.62
2019-01-18T09:11:42.181Z,1.75
2019-01-18T09:14:11.570Z,1.76
2019-01-18T09:16:42.056Z,1.93
2019-01-18T09:19:18.045Z,2.07
2019-01-18T09:21:54.881Z,2.12
2019-01-18T09:24:27.539Z,2.29
2019-01-18T09:27:17.463Z,2.48
2019-01-18T09:29:53.999Z,2.31
2019-01-18T09:32:28.957Z,2.52
2019-01-18T09:34:59.564Z,2.45
2019-01-18T09:37:29.284Z,2.60
2019-01-18T09:39:58.875Z,2.70
2019-01-18T09:42:28.134Z,2.85
2019-01-18T09:44:58.884Z,2.76
2019-01-18T09:47:39.128Z,3.09
2019-01-18T09:50:14.115Z,3.00
2019-01-18T09:52:50.437Z,3.30
2019-01-18T09:55:22.729Z,3.13
2019-01-18T09:57:54.048Z,3.35
2019-01-18T10:00:52.958Z,3.28
2019-01-18T10:03:37.632Z,3.27
2019-01-18T10:06:09.189Z,3.43
2019-01-18T10:08:39.486Z,3.42
2019-01-18T10:11:11.760Z,3.40
2019-01-18T10:13:41.733Z,3.57
2019-01-18T10:16:14.744Z,3.12
2019-01-18T10:18:52.562Z,3.33
2019-01-18T10:21:24.221Z,3.56
2019-01-18T10:23:53.648Z,3.34
2019-01-18T10:26:24.368Z,3.10
2019-01-18T10:28:54.913Z,3.13
2019-01-18T10:31:27.615Z,3.20
2019-01-18T10:34:01.424Z,3.00
2019-01-18T10:36:35.473Z,2.97
2019-01-18T10:39:10.494Z,2.84
2019-01-18T10:41:40.989Z,2.42
2019-01-18T10:44:11.436Z,2.10
2019-01-18T10:46:48.284Z,2.31
2019-01-18T10:49:21.759Z,2.49
2019-01-18T10:52:09.898Z,2.38
2019-01-18T10:54:39.245Z,2.66
2019-01-18T10:57:08.524Z,2.57
2019-01-18T10:59:39.338Z,2.56
2019-01-18T11:02:08.554Z,2.70
2019-01-18T11:04:37.821Z,3.31
2019-01-18T11:07:07.303Z,3.90
2019-01-18T11:09:36.918Z,3.28
2019-01-18T11:12:06.137Z,3.58
2019-01-18T11:14:35.767Z,4.39
2019-01-18T11:17:05.279Z,4.86
2019-01-18T11:19:35.991Z,5.24
2019-01-18T11:22:05.360Z,5.26
2019-01-18T11:24:34.866Z,4.91
2019-01-18T11:27:05.451Z,5.51
2019-01-18T11:29:34.730Z,5.75
2019-01-18T11:32:04.270Z,6.09
2019-01-18T11:34:33.894Z,6.31
2019-01-18T11:37:03.484Z,6.33
2019-01-18T11:39:32.754Z,6.67
2019-01-18T11:42:05.292Z,6.22
2019-01-18T11:44:34.134Z,6.70
2019-01-18T11:47:03.922Z,6.37
2019-01-18T11:49:34.782Z,4.71
2019-01-18T11:52:04.504Z,4.98
2019-01-18T11:54:34.035Z,6.14
2019-01-18T11:57:03.627Z,6.66
2019-01-18T11:59:32.894Z,7.22
2019-01-18T12:02:06.029Z,7.52
2019-01-18T12:04:36.090Z,7.74
2019-01-18T12:07:08.132Z,6.29
2019-01-18T12:09:37.395Z,7.23
2019-01-18T12:12:06.645Z,6.49
2019-01-18T12:14:35.951Z,6.38
2019-01-18T12:17:05.204Z,6.91
2019-01-18T12:19:34.465Z,6.21
2019-01-18T12:22:04.181Z,6.31
2019-01-18T12:24:34.454Z,7.20
2019-01-18T12:27:04.496Z,7.73
2019-01-18T12:29:33.844Z,7.64
2019-01-18T12:32:03.186Z,6.69
2019-01-18T12:34:32.847Z,6.35
2019-01-18T12:37:02.394Z,5.21
2019-01-18T12:39:32.152Z,5.88
2019-01-18T12:42:01.386Z,7.40
2019-01-18T12:44:40.065Z,7.91
2019-01-18T12:47:10.135Z,8.69
2019-01-18T12:49:39.639Z,8.46
2019-01-18T12:52:08.940Z,9.08
2019-01-18T12:54:38.395Z,9.66
2019-01-18T12:57:07.605Z,9.70
2019-01-18T12:59:43.906Z,10.47
2019-01-18T13:02:14.925Z,10.72
2019-01-18T13:04:45.356Z,11.30
2019-01-18T13:07:14.665Z,8.04
2019-01-18T13:09:46.125Z,8.84
2019-01-18T13:12:15.899Z,9.71
2019-01-18T13:14:46.088Z,11.06
2019-01-18T13:17:17.292Z,9.17
2019-01-18T13:19:47.097Z,10.70
2019-01-18T13:22:17.163Z,11.66
2019-01-18T13:24:58.762Z,11.70
2019-01-18T13:27:29.860Z,12.44
2019-01-18T13:30:00.641Z,12.00
2019-01-18T13:32:30.205Z,11.59
2019-01-18T13:35:00.459Z,11.49
2019-01-18T13:37:29.733Z,12.53
2019-01-18T13:40:01.053Z,13.11
2019-01-18T13:42:36.336Z,13.59
2019-01-18T13:45:07.724Z,14.88
2019-01-18T13:47:39.256Z,15.49
2019-01-18T13:50:10.729Z,15.76
2019-01-18T13:52:40.720Z,15.68
2019-01-18T13:55:16.609Z,15.13
2019-01-18T13:57:46.188Z,14.86
2019-01-18T14:00:17.874Z,14.25
2019-01-18T14:02:53.469Z,13.98
2019-01-18T14:05:24.378Z,14.45
2019-01-18T14:07:55.809Z,15.00
2019-01-18T14:10:29.056Z,15.94
2019-01-18T14:12:58.927Z,15.93
2019-01-18T14:15:28.533Z,15.56
2019-01-18T14:17:58.715Z,14.39
2019-01-18T14:20:32.763Z,14.65
2019-01-18T14:23:02.027Z,13.67
2019-01-18T14:25:34.787Z,14.16
2019-01-18T14:28:04.170Z,14.48
2019-01-18T14:30:35.805Z,14.41
2019-01-18T14:33:04.843Z,13.86
2019-01-18T14:35:35.538Z,13.29
2019-01-18T14:38:05.180Z,13.48
2019-01-18T14:40:34.810Z,13.45
2019-01-18T14:43:04.130Z,13.21
2019-01-18T14:45:35.867Z,13.79
2019-01-18T14:48:05.486Z,13.45
2019-01-18T14:50:38.556Z,13.85
2019-01-18T14:53:07.818Z,13.07
2019-01-18T14:55:39.537Z,12.83
2019-01-18T14:58:13.080Z,12.75
2019-01-18T15:00:42.866Z,12.30
2019-01-18T15:03:15.338Z,12.05
2019-01-18T15:05:44.490Z,11.68
2019-01-18T15:08:14.562Z,10.81
2019-01-18T15:10:52.258Z,10.12
2019-01-18T15:13:22.665Z,9.33
2019-01-18T15:15:58.033Z,9.11
2019-01-18T15:18:28.987Z,8.50
2019-01-18T15:21:07.013Z,8.26
2019-01-18T15:23:36.739Z,7.36
2019-01-18T15:26:06.273Z,7.26
2019-01-18T15:28:36.673Z,7.14
2019-01-18T15:31:07.204Z,6.95
2019-01-18T15:33:37.252Z,6.49
2019-01-18T15:36:08.300Z,6.34
2019-01-18T15:38:39.833Z,6.36
2019-01-18T15:41:10.646Z,5.89
2019-01-18T15:43:43.626Z,5.39
2019-01-18T15:46:13.180Z,5.31
2019-01-18T15:48:42.751Z,5.22
2019-01-18T15:51:15.660Z,4.99
2019-01-18T15:53:44.913Z,4.89
2019-01-18T15:56:16.737Z,4.88
2019-01-18T15:58:50.211Z,4.62
2019-01-18T16:01:23.254Z,4.44
2019-01-18T16:03:57.879Z,3.97
2019-01-18T16:06:27.697Z,3.97
2019-01-18T16:08:58.040Z,3.95
2019-01-18T16:11:27.569Z,3.79
2019-01-18T16:13:57.153Z,3.57
2019-01-18T16:16:34.821Z,3.84
2019-01-18T16:19:04.378Z,3.86
2019-01-18T16:21:34.707Z,3.87
2019-01-18T16:24:04.196Z,3.65
2019-01-18T16:26:34.705Z,3.55
2019-01-18T16:29:08.645Z,3.35
2019-01-18T16:31:39.787Z,3.17
2019-01-18T16:34:09.937Z,2.90
2019-01-18T16:36:39.858Z,2.92
2019-01-18T16:39:13.504Z,2.85
2019-01-18T16:41:45.248Z,2.79
2019-01-18T16:44:14.808Z,2.92
2019-01-18T16:46:45.269Z,2.88
2019-01-18T16:49:14.928Z,2.76
2019-01-18T16:51:50.841Z,2.73
2019-01-18T16:54:24.700Z,2.48
2019-01-18T16:57:01.696Z,2.41
2019-01-18T16:59:51.163Z,2.53
2019-01-18T17:02:23.792Z,2.70
2019-01-18T17:05:02.790Z,2.47
2019-01-18T17:07:33.630Z,2.32
2019-01-18T17:10:08.910Z,2.32
2019-01-18T17:12:40.342Z,2.19
2019-01-18T17:15:16.119Z,2.20
2019-01-18T17:17:45.569Z,2.10
2019-01-18T17:20:22.048Z,2.04
2019-01-18T17:23:03.842Z,2.06
2019-01-18T17:25:36.558Z,1.99
2019-01-18T17:28:13.435Z,1.81
2019-01-18T17:30:45.900Z,1.81
2019-01-18T17:33:20.506Z,1.77
2019-01-18T17:35:56.517Z,1.72
2019-01-18T17:39:12.088Z,1.52
2019-01-18T17:42:19.053Z,1.53
2019-01-18T17:45:20.853Z,1.47
2019-01-18T17:48:32.439Z,1.35
2019-01-18T17:51:32.648Z,1.14
2019-01-18T17:54:40.452Z,1.25
2019-01-18T17:58:13.893Z,1.21
2019-01-18T18:01:08.079Z,1.27
2019-01-18T18:04:17.068Z,1.27
2019-01-18T18:07:55.222Z,1.04
2019-01-18T18:11:12.711Z,1.04
2019-01-18T18:14:21.536Z,0.83
2019-01-18T18:17:32.298Z,0.82
2019-01-18T18:20:50.687Z,0.81
2019-01-18T18:23:48.410Z,0.82
2019-01-18T18:26:30.495Z,0.84
2019-01-18T18:29:26.258Z,0.71
2019-01-18T18:32:47.926Z,0.73
2019-01-18T18:36:01.993Z,0.78
2019-01-18T18:39:10.483Z,0.79
2019-01-18T18:42:28.905Z,0.66
2019-01-18T18:45:43.554Z,0.65
2019-01-18T18:48:26.801Z,0.51
2019-01-18T18:51:33.437Z,0.67
2019-01-18T18:54:34.436Z,0.75
2019-01-18T18:57:38.667Z,0.59
2019-01-18T19:00:33.276Z,0.50
2019-01-18T19:03:46.146Z,0.32
2019-01-18T19:06:58.449Z,0.58
2019-01-18T19:10:02.085Z,0.54
2019-01-18T19:13:00.500Z,0.46
2019-01-18T19:16:09.929Z,0.66
2019-01-18T19:19:01.975Z,0.65
2019-01-18T19:22:24.859Z,0.50
2019-01-18T19:25:29.886Z,0.39
2019-01-18T19:29:06.876Z,0.47
2019-01-18T19:32:29.577Z,0.26
2019-01-18T19:35:25.167Z,0.27
2019-01-18T19:38:38.368Z,0.32
2019-01-18T19:41:33.553Z,0.39
2019-01-18T19:44:38.340Z,0.46
2019-01-18T19:47:52.499Z,0.38
2019-01-18T19:51:12.070Z,0.14
2019-01-18T19:54:07.806Z,0.06
2019-01-18T19:57:18.448Z,-0.11
2019-01-18T20:00:30.825Z,-0.18
2019-01-18T20:03:31.671Z,-0.15
2019-01-18T20:06:45.493Z,-0.14
2019-01-18T20:09:43.537Z,-0.10
2019-01-18T20:12:51.876Z,0.09
2019-01-18T20:15:49.737Z,0.09
2019-01-18T20:18:50.594Z,-0.16
2019-01-18T20:21:46.946Z,-0.31
2019-01-18T20:24:56.931Z,-0.20
2019-01-18T20:28:00.023Z,-0.19
2019-01-18T20:31:18.226Z,-0.10
2019-01-18T20:34:28.003Z,-0.19
2019-01-18T20:37:16.662Z,-0.16
2019-01-18T20:40:23.557Z,-0.16
2019-01-18T20:43:13.134Z,-0.02
2019-01-18T20:46:05.046Z,0.02
2019-01-18T20:49:16.848Z,0.02
2019-01-18T20:52:36.354Z,-0.18
2019-01-18T20:55:33.157Z,-0.30
2019-01-18T20:58:41.548Z,-0.10
2019-01-18T21:01:45.420Z,-0.34
2019-01-18T21:05:01.323Z,-0.34
2019-01-18T21:07:52.027Z,-0.53
2019-01-18T21:11:01.283Z,-0.52
2019-01-18T21:14:07.420Z,-0.50
2019-01-18T21:17:02.512Z,-0.45
2019-01-18T21:19:53.724Z,-0.55
2019-01-18T21:23:12.304Z,-0.56
2019-01-18T21:26:22.110Z,-0.53
2019-01-18T21:29:09.987Z,-0.60
2019-01-18T21:32:07.863Z,-0.57
2019-01-18T21:35:13.501Z,-0.75
2019-01-18T21:38:08.444Z,-0.68
2019-01-18T21:41:01.736Z,-0.72
2019-01-18T21:44:22.807Z,-0.80
2019-01-18T21:47:48.724Z,-0.78
2019-01-18T21:51:02.387Z,-0.89
2019-01-18T21:54:00.452Z,-0.85
2019-01-18T21:57:15.900Z,-0.92
2019-01-18T22:00:18.952Z,-0.87
2019-01-18T22:03:05.662Z,-0.91
2019-01-18T22:05:52.634Z,-1.00
2019-01-18T22:09:10.638Z,-0.91
2019-01-18T22:12:15.289Z,-0.93
2019-01-18T22:15:16.071Z,-0.99
2019-01-18T22:18:38.076Z,-1.02
2019-01-18T22:21:37.833Z,-1.00
2019-01-18T22:24:53.956Z,-1.02
2019-01-18T22:28:06.819Z,-0.91
2019-01-18T22:31:32.587Z,-0.93
2019-01-18T22:34:14.429Z,-0.88
2019-01-18T22:37:13.175Z,-0.92
2019-01-18T22:40:29.048Z,-1.01
2019-01-18T22:43:49.423Z,-0.98
2019-01-18T22:47:02.070Z,-1.02
2019-01-18T22:50:19.602Z,-1.09
2019-01-18T22:53:34.069Z,-1.05
2019-01-18T22:56:35.761Z,-1.19
2019-01-18T22:59:42.267Z,-1.26
2019-01-18T23:02:49.448Z,-1.27
2019-01-18T23:05:48.478Z,-1.38
2019-01-18T23:09:15.571Z,-1.25
2019-01-18T23:12:26.951Z,-1.27
2019-01-18T23:15:30.250Z,-1.28
2019-01-18T23:18:55.183Z,-1.25
2019-01-18T23:22:17.356Z,-1.24
2019-01-18T23:25:19.923Z,-1.29
2019-01-18T23:28:28.515Z,-1.36
2019-01-18T23:31:20.325Z,-1.37
2019-01-18T23:34:25.373Z,-1.28
2019-01-18T23:37:11.728Z,-1.32
2019-01-18T23:40:35.040Z,-1.38
2019-01-18T23:43:57.396Z,-1.51
2019-01-18T23:46:45.792Z,-1.48
2019-01-18T23:49:48.051Z,-1.47
2019-01-18T23:52:41.197Z,-1.57
2019-01-18T23:55:56.475Z,-1.46
2019-01-18T23:58:59.695Z,-1.61
